Time,TemperatureF,DewpointF,PressureIn,WindDirection,WindDirectionDegrees,WindSpeedMPH,WindSpeedGustMPH,Humidity,HourlyPrecipIn,Conditions,Clouds,dailyrainin,SolarRadiationWatts/m^2,SoftwareType,DateUTC
2013-06-30 00:00:00,89.7,64.2,29.67,NE,52,0.0,0.0,43,0.00,,,0.00,0,Wunderground v.1.15,2013-06-30 05:00:00,
2013-06-30 00:05:00,89.6,65.4,29.67,NE,52,0.0,0.0,45,0.00,,,0.00,0,Wunderground v.1.15,2013-06-30 05:05:00,
2013-06-30 00:10:00,89.4,64.6,29.67,NE,52,0.0,0.0,44,0.00,,,0.00,0,Wunderground v.1.15,2013-06-30 05:10:00,
2013-06-30 00:15:00,89.1,65.0,29.67,NE,51,0.0,0.0,45,0.00,,,0.00,0,Wunderground v.1.15,2013-06-30 05:15:00,
2013-06-30 00:20:00,88.9,64.8,29.67,NE,52,0.0,0.0,45,0.00,,,0.00,0,Wunderground v.1.15,2013-06-30 05:20:00,
2013-06-30 00:25:00,88.7,65.3,29.67,NE,52,0.0,0.0,46,0.00,,,0.00,0,Wunderground v.1.15,2013-06-30 05:25:00,
2013-06-30 00:30:00,88.6,64.5,29.67,NE,52,0.0,0.0,45,0.00,,,0.00,0,Wunderground v.1.15,2013-06-30 05:30:00,
2013-06-30 00:35:00,88.5,65.1,29.67,NE,52,0.0,0.0,46,0.00,,,0.00,0,Wunderground v.1.15,2013-06-30 05:35:00,
2013-06-30 00:40:00,88.5,65.1,29.67,NE,52,0.0,0.0,46,0.00,,,0.00,0,Wunderground v.1.15,2013-06-30 05:40:00,
2013-06-30 00:50:00,88.6,65.8,29.68,NE,52,0.0,0.0,47,0.00,,,0.00,0,Wunderground v.1.15,2013-06-30 05:50:00,
2013-06-30 00:55:00,88.6,65.8,29.68,NE,52,0.0,0.0,47,0.00,,,0.00,0,Wunderground v.1.15,2013-06-30 05:55:00,
2013-06-30 01:00:00,88.5,65.7,29.68,NE,52,0.0,0.0,47,0.00,,,0.00,0,Wunderground v.1.15,2013-06-30 06:00:00,
2013-06-30 01:05:00,88.4,65.6,29.68,NE,52,0.0,0.0,47,0.00,,,0.00,0,Wunderground v.1.15,2013-06-30 06:05:00,
2013-06-30 01:10:00,88.3,66.1,29.68,NE,52,0.0,0.0,48,0.00,,,0.00,0,Wunderground v.1.15,2013-06-30 06:10:00,
2013-06-30 01:15:00,88.2,66.6,29.68,NE,52,0.0,0.0,49,0.00,,,0.00,0,Wunderground v.1.15,2013-06-30 06:15:00,
2013-06-30 01:20:00,88.0,66.4,29.68,NE,52,0.0,0.0,49,0.00,,,0.00,0,Wunderground v.1.15,2013-06-30 06:20:00,
2013-06-30 01:25:00,87.9,67.5,29.68,NE,52,0.0,0.0,51,0.00,,,0.00,0,Wunderground v.1.15,2013-06-30 06:25:00,
2013-06-30 01:30:00,87.7,67.3,29.68,NE,52,0.0,0.0,51,0.00,,,0.00,0,Wunderground v.1.15,2013-06-30 06:30:00,
2013-06-30 01:35:00,87.4,67.6,29.68,NE,52,0.0,0.0,52,0.00,,,0.00,0,Wunderground v.1.15,2013-06-30 06:35:00,
2013-06-30 01:40:00,87.2,67.4,29.68,NE,52,0.0,0.0,52,0.00,,,0.00,0,Wunderground v.1.15,2013-06-30 06:40:00,
2013-06-30 01:45:00,87.0,68.3,29.68,NE,52,0.0,0.0,54,0.00,,,0.00,0,Wunderground v.1.15,2013-06-30 06:45:00,
2013-06-30 01:50:00,86.8,68.2,29.68,NE,52,0.0,0.0,54,0.00,,,0.00,0,Wunderground v.1.15,2013-06-30 06:50:00,
2013-06-30 01:55:00,86.6,68.0,29.68,NE,52,0.0,0.0,54,0.00,,,0.00,0,Wunderground v.1.15,2013-06-30 06:55:00,
2013-06-30 02:00:00,86.3,67.7,29.68,NE,52,0.0,0.0,54,0.00,,,0.00,0,Wunderground v.1.15,2013-06-30 07:00:00,
2013-06-30 02:05:00,86.2,67.6,29.68,NE,52,0.0,0.0,54,0.00,,,0.00,0,Wunderground v.1.15,2013-06-30 07:05:00,
2013-06-30 02:10:00,86.0,68.0,29.68,NE,53,0.0,0.0,55,0.00,,,0.00,0,Wunderground v.1.15,2013-06-30 07:10:00,
2013-06-30 02:15:00,85.8,68.3,29.68,NE,52,0.0,0.0,56,0.00,,,0.00,0,Wunderground v.1.15,2013-06-30 07:15:00,
2013-06-30 02:20:00,85.6,68.1,29.68,NE,52,0.0,0.0,56,0.00,,,0.00,0,Wunderground v.1.15,2013-06-30 07:20:00,
2013-06-30 02:25:00,85.4,68.4,29.68,NE,53,0.0,0.0,57,0.00,,,0.00,0,Wunderground v.1.15,2013-06-30 07:25:00,
2013-06-30 02:30:00,85.4,68.4,29.69,NE,53,0.0,0.0,57,0.00,,,0.00,0,Wunderground v.1.15,2013-06-30 07:30:00,
2013-06-30 02:35:00,85.3,68.3,29.69,NE,52,0.0,0.0,57,0.00,,,0.00,0,Wunderground v.1.15,2013-06-30 07:35:00,
2013-06-30 02:40:00,85.2,68.8,29.69,NE,53,0.0,0.0,58,0.00,,,0.00,0,Wunderground v.1.15,2013-06-30 07:40:00,
2013-06-30 02:45:00,85.0,69.1,29.68,NE,52,0.0,0.0,59,0.00,,,0.00,0,Wunderground v.1.15,2013-06-30 07:45:00,
2013-06-30 02:50:00,84.8,68.4,29.68,NE,53,0.0,0.0,58,0.00,,,0.00,0,Wunderground v.1.15,2013-06-30 07:50:00,
2013-06-30 03:00:00,84.5,68.6,29.68,NE,52,0.0,0.0,59,0.00,,,0.00,0,Wunderground v.1.15,2013-06-30 08:00:00,
2013-06-30 03:05:00,84.3,68.9,29.68,NE,52,0.0,0.0,60,0.00,,,0.00,0,Wunderground v.1.15,2013-06-30 08:05:00,
2013-06-30 03:10:00,84.0,68.6,29.68,NE,52,0.0,0.0,60,0.00,,,0.00,0,Wunderground v.1.15,2013-06-30 08:10:00,
2013-06-30 03:15:00,83.7,68.8,29.69,NE,52,0.0,0.0,61,0.00,,,0.00,0,Wunderground v.1.15,2013-06-30 08:15:00,
2013-06-30 03:20:00,83.5,68.6,29.69,NE,53,0.0,0.0,61,0.00,,,0.00,0,Wunderground v.1.15,2013-06-30 08:20:00,
2013-06-30 03:25:00,83.4,69.0,29.69,NE,52,0.0,0.0,62,0.00,,,0.00,0,Wunderground v.1.15,2013-06-30 08:25:00,
2013-06-30 03:30:00,83.2,69.3,29.69,NE,53,0.0,0.0,63,0.00,,,0.00,0,Wunderground v.1.15,2013-06-30 08:30:00,
2013-06-30 03:35:00,83.1,68.7,29.69,NE,52,0.0,0.0,62,0.00,,,0.00,0,Wunderground v.1.15,2013-06-30 08:35:00,
2013-06-30 03:40:00,83.1,69.2,29.69,NE,52,0.0,0.0,63,0.00,,,0.00,0,Wunderground v.1.15,2013-06-30 08:40:00,
2013-06-30 03:45:00,83.1,69.7,29.68,NE,52,0.0,0.0,64,0.00,,,0.00,0,Wunderground v.1.15,2013-06-30 08:45:00,
2013-06-30 03:50:00,83.1,69.7,29.68,NE,52,0.0,0.0,64,0.00,,,0.00,0,Wunderground v.1.15,2013-06-30 08:50:00,
2013-06-30 03:55:00,83.1,69.2,29.68,NE,52,0.0,0.0,63,0.00,,,0.00,0,Wunderground v.1.15,2013-06-30 08:55:00,
2013-06-30 04:00:00,83.1,69.7,29.68,NE,53,0.0,0.0,64,0.00,,,0.00,0,Wunderground v.1.15,2013-06-30 09:00:00,
2013-06-30 04:05:00,83.0,69.1,29.68,NE,52,0.0,0.0,63,0.00,,,0.00,0,Wunderground v.1.15,2013-06-30 09:05:00,
2013-06-30 04:10:00,83.0,69.1,29.68,NE,52,0.0,0.0,63,0.00,,,0.00,0,Wunderground v.1.15,2013-06-30 09:10:00,
2013-06-30 04:15:00,83.0,69.1,29.68,NE,52,0.0,0.0,63,0.00,,,0.00,0,Wunderground v.1.15,2013-06-30 09:15:00,
2013-06-30 04:20:00,83.0,69.1,29.68,NE,52,0.0,0.0,63,0.00,,,0.00,0,Wunderground v.1.15,2013-06-30 09:20:00,
2013-06-30 04:25:00,83.1,69.2,29.68,NE,52,0.0,0.0,63,0.00,,,0.00,0,Wunderground v.1.15,2013-06-30 09:25:00,
2013-06-30 04:30:00,83.0,69.1,29.68,NE,53,0.0,0.0,63,0.00,,,0.00,0,Wunderground v.1.15,2013-06-30 09:30:00,
2013-06-30 04:35:00,82.9,69.0,29.68,NE,53,0.0,0.0,63,0.00,,,0.00,0,Wunderground v.1.15,2013-06-30 09:35:00,
2013-06-30 04:40:00,82.9,69.0,29.68,NE,53,0.0,0.0,63,0.00,,,0.00,0,Wunderground v.1.15,2013-06-30 09:40:00,
2013-06-30 04:45:00,82.8,68.9,29.68,NE,53,0.0,0.0,63,0.00,,,0.00,0,Wunderground v.1.15,2013-06-30 09:45:00,
2013-06-30 04:50:00,82.5,68.6,29.68,NE,53,0.0,0.0,63,0.00,,,0.00,0,Wunderground v.1.15,2013-06-30 09:50:00,
2013-06-30 04:55:00,82.3,68.4,29.68,NE,55,0.0,0.0,63,0.00,,,0.00,0,Wunderground v.1.15,2013-06-30 09:55:00,
2013-06-30 05:00:00,82.2,68.8,29.70,ENE,57,0.0,0.0,64,0.00,,,0.00,0,Wunderground v.1.15,2013-06-30 10:00:00,
2013-06-30 05:05:00,82.1,68.7,29.70,ENE,57,0.0,0.0,64,0.00,,,0.00,0,Wunderground v.1.15,2013-06-30 10:05:00,
2013-06-30 05:10:00,82.0,68.6,29.70,ENE,59,0.0,0.0,64,0.00,,,0.00,0,Wunderground v.1.15,2013-06-30 10:10:00,
2013-06-30 05:15:00,82.0,69.1,29.71,ENE,68,0.0,0.0,65,0.00,,,0.00,0,Wunderground v.1.15,2013-06-30 10:15:00,
2013-06-30 05:20:00,81.9,68.1,29.71,East,98,1.0,1.0,63,0.00,,,0.00,0,Wunderground v.1.15,2013-06-30 10:20:00,
2013-06-30 05:30:00,82.3,67.5,29.71,ENE,78,2.0,4.0,61,0.00,,,0.00,0,Wunderground v.1.15,2013-06-30 10:30:00,
2013-06-30 05:35:00,82.3,66.0,29.71,ENE,78,3.0,6.0,58,0.00,,,0.00,0,Wunderground v.1.15,2013-06-30 10:35:00,
2013-06-30 05:40:00,82.3,65.5,29.71,ENE,73,4.0,7.0,57,0.00,,,0.00,0,Wunderground v.1.15,2013-06-30 10:40:00,
2013-06-30 05:45:00,82.1,65.9,29.71,ENE,68,4.0,7.0,58,0.00,,,0.00,0,Wunderground v.1.15,2013-06-30 10:45:00,
2013-06-30 05:50:00,82.0,65.8,29.71,NE,42,3.0,3.0,58,0.00,,,0.00,0,Wunderground v.1.15,2013-06-30 10:50:00,
2013-06-30 05:55:00,81.7,66.0,29.71,ESE,118,2.0,3.0,59,0.00,,,0.00,0,Wunderground v.1.15,2013-06-30 10:55:00,
2013-06-30 06:00:00,81.6,66.4,29.72,ENE,67,1.0,4.0,60,0.00,,,0.00,0,Wunderground v.1.15,2013-06-30 11:00:00,
2013-06-30 06:05:00,81.4,66.7,29.72,ESE,104,1.0,4.0,61,0.00,,,0.00,0,Wunderground v.1.15,2013-06-30 11:05:00,
2013-06-30 06:10:00,81.2,66.9,29.72,East,89,2.0,2.0,62,0.00,,,0.00,0,Wunderground v.1.15,2013-06-30 11:10:00,
2013-06-30 06:20:00,80.7,66.9,29.72,ESE,115,1.0,6.0,63,0.00,,,0.00,0,Wunderground v.1.15,2013-06-30 11:20:00,
2013-06-30 06:25:00,80.5,66.7,29.72,East,88,2.0,6.0,63,0.00,,,0.00,0,Wunderground v.1.15,2013-06-30 11:25:00,
2013-06-30 06:30:00,80.3,67.0,29.73,NE,56,1.0,1.0,64,0.00,,,0.00,0,Wunderground v.1.15,2013-06-30 11:30:00,
2013-06-30 06:35:00,80.0,66.7,29.73,ENE,75,1.0,1.0,64,0.00,,,0.00,0,Wunderground v.1.15,2013-06-30 11:35:00,
2013-06-30 06:40:00,79.9,67.1,29.73,ESE,108,1.0,3.0,65,0.00,,,0.00,0,Wunderground v.1.15,2013-06-30 11:40:00,
2013-06-30 06:45:00,79.7,67.3,29.73,SE,125,0.0,3.0,66,0.00,,,0.00,5,Wunderground v.1.15,2013-06-30 11:45:00,
2013-06-30 06:50:00,79.6,67.2,29.73,NE,51,1.0,1.0,66,0.00,,,0.00,12,Wunderground v.1.15,2013-06-30 11:50:00,
2013-06-30 06:55:00,79.5,67.6,29.73,ESE,110,1.0,1.0,67,0.00,,,0.00,16,Wunderground v.1.15,2013-06-30 11:55:00,
2013-06-30 07:00:00,79.4,67.9,29.74,ENE,71,1.0,1.0,68,0.00,,,0.00,23,Wunderground v.1.15,2013-06-30 12:00:00,
2013-06-30 07:05:00,79.4,67.9,29.74,East,84,1.0,1.0,68,0.00,,,0.00,26,Wunderground v.1.15,2013-06-30 12:05:00,
2013-06-30 07:10:00,79.2,68.1,29.74,ENE,59,0.0,0.0,69,0.00,,,0.00,28,Wunderground v.1.15,2013-06-30 12:10:00,
2013-06-30 07:15:00,79.1,68.5,29.75,ENE,65,1.0,1.0,70,0.00,,,0.00,26,Wunderground v.1.15,2013-06-30 12:15:00,
2013-06-30 07:20:00,78.9,68.3,29.75,ENE,61,1.0,1.0,70,0.00,,,0.00,25,Wunderground v.1.15,2013-06-30 12:20:00,
2013-06-30 07:25:00,78.8,68.6,29.75,ENE,59,0.0,1.0,71,0.00,,,0.00,23,Wunderground v.1.15,2013-06-30 12:25:00,
2013-06-30 07:30:00,78.7,68.5,29.75,ENE,59,0.0,0.0,71,0.00,,,0.00,19,Wunderground v.1.15,2013-06-30 12:30:00,
2013-06-30 07:35:00,78.7,68.5,29.75,ENE,59,0.0,0.0,71,0.00,,,0.00,16,Wunderground v.1.15,2013-06-30 12:35:00,
2013-06-30 07:40:00,78.7,68.9,29.75,ESE,103,0.0,0.0,72,0.00,,,0.00,25,Wunderground v.1.15,2013-06-30 12:40:00,
2013-06-30 07:45:00,78.7,68.9,29.73,ESE,105,0.0,0.0,72,0.00,,,0.00,30,Wunderground v.1.15,2013-06-30 12:45:00,
2013-06-30 07:55:00,78.7,69.7,29.73,ESE,111,0.0,0.0,74,0.00,,,0.00,23,Wunderground v.1.15,2013-06-30 12:55:00,
2013-06-30 08:00:00,78.7,69.7,29.77,NNE,18,0.0,0.0,74,0.00,,,0.00,16,Wunderground v.1.15,2013-06-30 13:00:00,
2013-06-30 08:05:00,78.7,69.3,29.77,NNW,327,0.0,0.0,73,0.00,,,0.00,16,Wunderground v.1.15,2013-06-30 13:05:00,
2013-06-30 08:10:00,78.6,69.2,29.77,NNW,337,0.0,0.0,73,0.00,,,0.00,18,Wunderground v.1.15,2013-06-30 13:10:00,
2013-06-30 08:15:00,78.4,71.0,29.77,ENE,77,0.0,0.0,78,0.47,,,0.05,25,Wunderground v.1.15,2013-06-30 13:15:00,
2013-06-30 08:20:00,77.9,71.2,29.77,East,93,0.0,0.0,80,0.15,,,0.07,26,Wunderground v.1.15,2013-06-30 13:20:00,
2013-06-30 08:25:00,77.1,70.8,29.77,ESE,113,1.0,3.0,81,0.11,,,0.07,26,Wunderground v.1.15,2013-06-30 13:25:00,
2013-06-30 08:30:00,76.6,71.0,29.77,East,100,1.0,1.0,83,0.06,,,0.07,19,Wunderground v.1.15,2013-06-30 13:30:00,
2013-06-30 08:40:00,75.5,70.7,29.77,NW,321,3.0,13.0,85,0.00,,,0.07,5,Wunderground v.1.15,2013-06-30 13:40:00,
2013-06-30 08:45:00,74.6,69.8,29.86,NW,311,8.0,13.0,85,0.00,,,0.07,0,Wunderground v.1.15,2013-06-30 13:45:00,
2013-06-30 08:50:00,74.1,69.3,29.86,WNW,302,11.0,11.0,85,0.00,,,0.07,0,Wunderground v.1.15,2013-06-30 13:50:00,
2013-06-30 08:55:00,73.8,69.3,29.86,WNW,300,11.0,11.0,86,1.72,,,0.11,5,Wunderground v.1.15,2013-06-30 13:55:00,
2013-06-30 09:05:00,72.2,68.4,29.90,NW,317,11.0,25.0,88,1.01,,,0.35,9,Wunderground v.1.15,2013-06-30 14:05:00,
2013-06-30 09:10:00,71.5,68.1,29.90,WNW,299,12.0,12.0,89,0.41,,,0.38,7,Wunderground v.1.15,2013-06-30 14:10:00,
2013-06-30 09:15:00,71.3,68.2,29.89,NW,313,11.0,12.0,90,0.18,,,0.39,9,Wunderground v.1.15,2013-06-30 14:15:00,
2013-06-30 09:20:00,71.0,67.9,29.89,WNW,298,8.0,8.0,90,0.12,,,0.40,9,Wunderground v.1.15,2013-06-30 14:20:00,
2013-06-30 09:25:00,70.8,68.0,29.89,NW,313,6.0,8.0,91,0.06,,,0.40,5,Wunderground v.1.15,2013-06-30 14:25:00,
2013-06-30 09:30:00,70.6,68.2,29.89,NW,310,5.0,6.0,92,0.04,,,0.40,5,Wunderground v.1.15,2013-06-30 14:30:00,
2013-06-30 09:40:00,70.5,68.1,29.89,NW,312,6.0,7.0,92,0.00,,,0.40,7,Wunderground v.1.15,2013-06-30 14:40:00,
2013-06-30 09:45:00,70.4,68.0,29.90,WNW,303,5.0,7.0,92,0.00,,,0.40,7,Wunderground v.1.15,2013-06-30 14:45:00,
2013-06-30 09:55:00,70.4,68.3,29.90,NW,313,7.0,7.0,93,0.56,,,0.43,5,Wunderground v.1.15,2013-06-30 14:55:00,
2013-06-30 10:00:00,70.4,68.3,29.92,NW,309,7.0,7.0,93,0.33,,,0.46,5,Wunderground v.1.15,2013-06-30 15:00:00,
2013-06-30 10:05:00,70.4,68.3,29.92,NW,304,5.0,7.0,93,0.15,,,0.47,5,Wunderground v.1.15,2013-06-30 15:05:00,
2013-06-30 10:10:00,70.3,68.5,29.92,NW,304,6.0,7.0,94,0.15,,,0.49,5,Wunderground v.1.15,2013-06-30 15:10:00,
2013-06-30 10:15:00,70.3,68.5,29.90,NW,321,5.0,7.0,94,0.14,,,0.50,5,Wunderground v.1.15,2013-06-30 15:15:00,
2013-06-30 10:20:00,70.2,68.4,29.90,NW,314,5.0,5.0,94,0.10,,,0.50,7,Wunderground v.1.15,2013-06-30 15:20:00,
2013-06-30 10:25:00,70.1,68.3,29.90,NW,314,4.0,5.0,94,0.17,,,0.52,7,Wunderground v.1.15,2013-06-30 15:25:00,
2013-06-30 10:30:00,70.1,68.3,29.88,NW,315,1.0,1.0,94,0.19,,,0.53,7,Wunderground v.1.15,2013-06-30 15:30:00,
2013-06-30 10:35:00,70.1,68.3,29.88,NW,314,0.0,1.0,94,0.16,,,0.54,9,Wunderground v.1.15,2013-06-30 15:35:00,
2013-06-30 10:40:00,70.0,68.2,29.88,NW,314,0.0,0.0,94,0.10,,,0.55,9,Wunderground v.1.15,2013-06-30 15:40:00,
2013-06-30 10:45:00,70.0,68.2,29.85,NW,314,0.0,0.0,94,0.15,,,0.56,9,Wunderground v.1.15,2013-06-30 15:45:00,
2013-06-30 10:50:00,70.1,68.3,29.85,NW,317,0.0,0.0,94,0.23,,,0.58,11,Wunderground v.1.15,2013-06-30 15:50:00,
2013-06-30 10:55:00,70.1,68.6,29.85,NW,317,0.0,0.0,95,0.18,,,0.60,12,Wunderground v.1.15,2013-06-30 15:55:00,
2013-06-30 11:00:00,70.1,68.3,29.85,NW,318,0.0,0.0,94,0.15,,,0.61,16,Wunderground v.1.15,2013-06-30 16:00:00,
2013-06-30 11:05:00,70.1,68.3,29.85,NW,317,0.0,0.0,94,0.16,,,0.62,19,Wunderground v.1.15,2013-06-30 16:05:00,
2013-06-30 11:10:00,70.1,68.6,29.85,NW,317,0.0,0.0,95,0.12,,,0.63,25,Wunderground v.1.15,2013-06-30 16:10:00,
2013-06-30 11:15:00,70.2,68.7,29.84,NW,316,0.0,0.0,95,0.13,,,0.64,32,Wunderground v.1.15,2013-06-30 16:15:00,
2013-06-30 11:20:00,70.3,68.8,29.84,NW,321,0.0,0.0,95,0.11,,,0.65,40,Wunderground v.1.15,2013-06-30 16:20:00,
2013-06-30 11:25:00,70.3,68.8,29.84,NW,320,0.0,0.0,95,0.09,,,0.66,53,Wunderground v.1.15,2013-06-30 16:25:00,
2013-06-30 11:35:00,70.5,69.0,29.84,NW,320,0.0,0.0,95,0.08,,,0.67,72,Wunderground v.1.15,2013-06-30 16:35:00,
2013-06-30 11:40:00,70.6,69.1,29.84,NW,321,0.0,0.0,95,0.06,,,0.68,76,Wunderground v.1.15,2013-06-30 16:40:00,
2013-06-30 11:45:00,70.7,69.2,29.84,NW,320,0.0,0.0,95,0.06,,,0.68,104,Wunderground v.1.15,2013-06-30 16:45:00,
2013-06-30 11:50:00,70.8,69.3,29.84,SE,129,0.0,0.0,95,0.06,,,0.68,141,Wunderground v.1.15,2013-06-30 16:50:00,
2013-06-30 11:55:00,70.8,69.3,29.84,SE,128,0.0,0.0,95,0.04,,,0.68,153,Wunderground v.1.15,2013-06-30 16:55:00,
2013-06-30 12:00:00,71.0,69.8,29.84,SE,129,0.0,0.0,96,0.00,,,0.68,142,Wunderground v.1.15,2013-06-30 17:00:00,
2013-06-30 12:05:00,71.1,69.9,29.84,SE,128,0.0,0.0,96,0.00,,,0.68,144,Wunderground v.1.15,2013-06-30 17:05:00,
2013-06-30 12:10:00,71.2,70.0,29.84,SE,129,0.0,0.0,96,0.00,,,0.68,171,Wunderground v.1.15,2013-06-30 17:10:00,
2013-06-30 12:15:00,71.3,70.1,29.83,SE,129,0.0,0.0,96,0.00,,,0.68,174,Wunderground v.1.15,2013-06-30 17:15:00,
2013-06-30 12:20:00,71.4,70.2,29.83,SE,129,0.0,0.0,96,0.00,,,0.68,153,Wunderground v.1.15,2013-06-30 17:20:00,
2013-06-30 12:25:00,71.5,70.3,29.83,SE,128,0.0,0.0,96,0.00,,,0.68,148,Wunderground v.1.15,2013-06-30 17:25:00,
2013-06-30 12:30:00,71.3,69.8,29.82,SE,125,1.0,1.0,95,0.00,,,0.68,137,Wunderground v.1.15,2013-06-30 17:30:00,
2013-06-30 12:35:00,71.3,70.1,29.82,ESE,121,1.0,1.0,96,0.00,,,0.68,118,Wunderground v.1.15,2013-06-30 17:35:00,
2013-06-30 12:40:00,71.5,70.3,29.82,ESE,120,1.0,1.0,96,0.00,,,0.68,102,Wunderground v.1.15,2013-06-30 17:40:00,
2013-06-30 12:45:00,71.5,70.3,29.83,ESE,119,0.0,1.0,96,0.00,,,0.68,91,Wunderground v.1.15,2013-06-30 17:45:00,
2013-06-30 12:50:00,71.5,70.3,29.83,ESE,120,0.0,0.0,96,0.00,,,0.68,90,Wunderground v.1.15,2013-06-30 17:50:00,
2013-06-30 12:55:00,71.5,70.3,29.83,ESE,121,0.0,0.0,96,0.00,,,0.68,98,Wunderground v.1.15,2013-06-30 17:55:00,
2013-06-30 13:00:00,71.6,70.4,29.84,ESE,121,0.0,0.0,96,0.00,,,0.68,105,Wunderground v.1.15,2013-06-30 18:00:00,
2013-06-30 13:05:00,71.8,70.6,29.84,ESE,119,0.0,0.0,96,0.00,,,0.68,104,Wunderground v.1.15,2013-06-30 18:05:00,
2013-06-30 13:10:00,71.9,70.7,29.84,ESE,118,0.0,0.0,96,0.00,,,0.68,107,Wunderground v.1.15,2013-06-30 18:10:00,
2013-06-30 13:15:00,72.0,70.8,29.84,ESE,119,0.0,0.0,96,0.00,,,0.68,116,Wunderground v.1.15,2013-06-30 18:15:00,
2013-06-30 13:20:00,72.2,71.0,29.84,ESE,119,0.0,0.0,96,0.00,,,0.68,141,Wunderground v.1.15,2013-06-30 18:20:00,
2013-06-30 13:25:00,72.2,71.0,29.84,ESE,119,0.0,0.0,96,0.00,,,0.68,149,Wunderground v.1.15,2013-06-30 18:25:00,
2013-06-30 13:35:00,72.3,71.1,29.83,ESE,119,0.0,0.0,96,0.00,,,0.68,162,Wunderground v.1.15,2013-06-30 18:35:00,
2013-06-30 13:40:00,72.2,71.0,29.83,ESE,119,0.0,0.0,96,0.00,,,0.68,172,Wunderground v.1.15,2013-06-30 18:40:00,
2013-06-30 13:45:00,72.3,71.1,29.83,ESE,120,0.0,0.0,96,0.00,,,0.68,204,Wunderground v.1.15,2013-06-30 18:45:00,
2013-06-30 13:50:00,72.5,71.3,29.83,ESE,119,0.0,0.0,96,0.00,,,0.68,253,Wunderground v.1.15,2013-06-30 18:50:00,
2013-06-30 14:00:00,72.9,71.7,29.83,North,11,0.0,0.0,96,0.00,,,0.68,288,Wunderground v.1.15,2013-06-30 19:00:00,
2013-06-30 14:05:00,73.0,71.8,29.83,North,360,0.0,0.0,96,0.00,,,0.68,287,Wunderground v.1.15,2013-06-30 19:05:00,
2013-06-30 14:15:00,73.2,72.0,29.82,North,360,0.0,0.0,96,0.00,,,0.68,315,Wunderground v.1.15,2013-06-30 19:15:00,
2013-06-30 14:20:00,73.4,72.2,29.82,North,360,0.0,0.0,96,0.00,,,0.68,371,Wunderground v.1.15,2013-06-30 19:20:00,
2013-06-30 14:25:00,73.6,72.4,29.82,North,360,0.0,0.0,96,0.00,,,0.68,403,Wunderground v.1.15,2013-06-30 19:25:00,
2013-06-30 14:30:00,74.2,73.0,29.81,North,360,0.0,0.0,96,0.00,,,0.68,367,Wunderground v.1.15,2013-06-30 19:30:00,
2013-06-30 14:35:00,74.4,72.9,29.81,West,278,0.0,0.0,95,0.00,,,0.68,352,Wunderground v.1.15,2013-06-30 19:35:00,
2013-06-30 14:40:00,74.6,73.1,29.81,West,281,0.0,0.0,95,0.00,,,0.68,387,Wunderground v.1.15,2013-06-30 19:40:00,
2013-06-30 14:45:00,75.0,73.2,29.81,West,265,1.0,1.0,94,0.00,,,0.68,568,Wunderground v.1.15,2013-06-30 19:45:00,
2013-06-30 14:50:00,76.0,73.5,29.81,WNW,292,0.0,6.0,92,0.00,,,0.68,478,Wunderground v.1.15,2013-06-30 19:50:00,
2013-06-30 14:55:00,76.8,73.3,29.81,WNW,286,2.0,6.0,89,0.00,,,0.68,482,Wunderground v.1.15,2013-06-30 19:55:00,
2013-06-30 15:00:00,77.9,73.4,29.82,WNW,286,2.0,2.0,86,0.00,,,0.68,454,Wunderground v.1.15,2013-06-30 20:00:00,
2013-06-30 15:05:00,78.5,72.9,29.82,West,277,1.0,5.0,83,0.00,,,0.68,404,Wunderground v.1.15,2013-06-30 20:05:00,
2013-06-30 15:10:00,78.9,72.2,29.82,West,275,3.0,3.0,80,0.00,,,0.68,431,Wunderground v.1.15,2013-06-30 20:10:00,
2013-06-30 15:15:00,79.6,73.3,29.81,West,281,3.0,7.0,81,0.00,,,0.68,490,Wunderground v.1.15,2013-06-30 20:15:00,
2013-06-30 15:20:00,80.1,73.0,29.81,West,272,2.0,6.0,79,0.00,,,0.68,461,Wunderground v.1.15,2013-06-30 20:20:00,
2013-06-30 15:30:00,80.8,73.3,29.81,WSW,248,1.0,1.0,78,0.00,,,0.68,434,Wunderground v.1.15,2013-06-30 20:30:00,
2013-06-30 15:40:00,81.3,73.0,29.81,West,264,1.0,1.0,76,0.00,,,0.68,387,Wunderground v.1.15,2013-06-30 20:40:00,
2013-06-30 15:45:00,81.5,73.6,29.81,WSW,244,0.0,1.0,77,0.00,,,0.68,383,Wunderground v.1.15,2013-06-30 20:45:00,
2013-06-30 15:50:00,81.6,73.3,29.81,West,264,0.0,0.0,76,0.00,,,0.68,336,Wunderground v.1.15,2013-06-30 20:50:00,
2013-06-30 15:55:00,81.6,73.3,29.81,West,271,0.0,0.0,76,0.00,,,0.68,301,Wunderground v.1.15,2013-06-30 20:55:00,
2013-06-30 16:00:00,81.6,73.3,29.80,WSW,241,0.0,0.0,76,0.00,,,0.68,315,Wunderground v.1.15,2013-06-30 21:00:00,
2013-06-30 16:05:00,81.7,73.0,29.80,West,281,0.0,0.0,75,0.00,,,0.68,318,Wunderground v.1.15,2013-06-30 21:05:00,
2013-06-30 16:15:00,82.1,73.8,29.79,SW,236,1.0,5.0,76,0.00,,,0.68,383,Wunderground v.1.15,2013-06-30 21:15:00,
2013-06-30 16:20:00,82.4,73.7,29.79,SW,225,1.0,1.0,75,0.00,,,0.68,489,Wunderground v.1.15,2013-06-30 21:20:00,
2013-06-30 16:25:00,82.7,74.0,29.79,SW,233,1.0,1.0,75,0.00,,,0.68,499,Wunderground v.1.15,2013-06-30 21:25:00,
2013-06-30 16:30:00,83.3,73.3,29.79,West,272,0.0,0.0,72,0.00,,,0.68,570,Wunderground v.1.15,2013-06-30 21:30:00,
2013-06-30 16:35:00,83.7,72.9,29.79,West,261,0.0,0.0,70,0.00,,,0.68,355,Wunderground v.1.15,2013-06-30 21:35:00,
2013-06-30 16:40:00,83.9,73.1,29.79,West,260,0.0,0.0,70,0.00,,,0.68,301,Wunderground v.1.15,2013-06-30 21:40:00,
2013-06-30 16:45:00,83.9,72.2,29.78,West,265,0.0,0.0,68,0.00,,,0.68,257,Wunderground v.1.15,2013-06-30 21:45:00,
2013-06-30 16:50:00,84.0,72.3,29.78,West,267,0.0,0.0,68,0.00,,,0.68,246,Wunderground v.1.15,2013-06-30 21:50:00,
2013-06-30 16:55:00,84.1,72.8,29.78,West,267,0.0,0.0,69,0.00,,,0.68,237,Wunderground v.1.15,2013-06-30 21:55:00,
2013-06-30 17:00:00,84.1,73.3,29.78,West,274,0.0,0.0,70,0.00,,,0.68,230,Wunderground v.1.15,2013-06-30 22:00:00,
2013-06-30 17:05:00,84.2,73.3,29.78,West,274,0.0,0.0,70,0.00,,,0.68,227,Wunderground v.1.15,2013-06-30 22:05:00,
2013-06-30 21:55:00,78.2,69.6,29.76,NNW,327,0.0,0.0,75,0.00,,,0.68,0,Wunderground v.1.15,2013-07-01 02:55:00,
2013-06-30 22:00:00,78.0,69.8,29.76,NNW,327,0.0,0.0,76,0.00,,,0.68,0,Wunderground v.1.15,2013-07-01 03:00:00,
2013-06-30 22:05:00,77.8,69.6,29.76,NNW,327,0.0,0.0,76,0.00,,,0.68,0,Wunderground v.1.15,2013-07-01 03:05:00,
2013-06-30 22:10:00,77.7,69.5,29.76,NW,326,0.0,0.0,76,0.00,,,0.68,0,Wunderground v.1.15,2013-07-01 03:10:00,
2013-06-30 22:15:00,77.5,69.3,29.76,NW,326,0.0,0.0,76,0.00,,,0.68,0,Wunderground v.1.15,2013-07-01 03:15:00,
2013-06-30 22:20:00,77.3,69.1,29.76,NNW,327,0.0,0.0,76,0.00,,,0.68,0,Wunderground v.1.15,2013-07-01 03:20:00,
2013-06-30 22:25:00,77.2,69.0,29.76,NNW,327,0.0,0.0,76,0.00,,,0.68,0,Wunderground v.1.15,2013-07-01 03:25:00,
2013-06-30 22:30:00,77.1,68.9,29.77,NNW,327,0.0,0.0,76,0.00,,,0.68,0,Wunderground v.1.15,2013-07-01 03:30:00,
2013-06-30 22:40:00,76.8,69.0,29.77,NW,326,0.0,0.0,77,0.00,,,0.68,0,Wunderground v.1.15,2013-07-01 03:40:00,
2013-06-30 22:45:00,76.7,68.9,29.77,NW,326,0.0,0.0,77,0.00,,,0.68,0,Wunderground v.1.15,2013-07-01 03:45:00,
2013-06-30 22:55:00,76.5,69.1,29.77,NNW,327,0.0,0.0,78,0.00,,,0.68,0,Wunderground v.1.15,2013-07-01 03:55:00,
2013-06-30 23:00:00,76.3,68.9,29.77,NNW,327,0.0,0.0,78,0.00,,,0.68,0,Wunderground v.1.15,2013-07-01 04:00:00,
2013-06-30 23:05:00,76.2,69.2,29.77,NNW,327,0.0,0.0,79,0.00,,,0.68,0,Wunderground v.1.15,2013-07-01 04:05:00,
2013-06-30 23:10:00,76.0,69.0,29.77,NNW,327,0.0,0.0,79,0.00,,,0.68,0,Wunderground v.1.15,2013-07-01 04:10:00,
2013-06-30 23:15:00,75.8,68.8,29.77,NNW,327,0.0,0.0,79,0.00,,,0.68,0,Wunderground v.1.15,2013-07-01 04:15:00,
2013-06-30 23:25:00,75.4,68.4,29.77,NNW,327,0.0,0.0,79,0.00,,,0.68,0,Wunderground v.1.15,2013-07-01 04:25:00,
2013-06-30 23:30:00,75.3,68.7,29.78,NW,326,0.0,0.0,80,0.00,,,0.68,0,Wunderground v.1.15,2013-07-01 04:30:00,
2013-06-30 23:35:00,75.1,68.9,29.78,NW,326,0.0,0.0,81,0.00,,,0.68,0,Wunderground v.1.15,2013-07-01 04:35:00,
2013-06-30 23:40:00,74.9,68.7,29.78,NNW,327,0.0,0.0,81,0.00,,,0.68,0,Wunderground v.1.15,2013-07-01 04:40:00,
2013-06-30 23:45:00,74.6,68.4,29.78,NNW,327,0.0,0.0,81,0.00,,,0.68,0,Wunderground v.1.15,2013-07-01 04:45:00,
2013-06-30 23:55:00,74.3,68.4,29.78,NNW,327,0.0,0.0,82,0.00,,,0.68,0,Wunderground v.1.15,2013-07-01 04:55:00,